sensor_id;sensor_type;location;lat;lon;timestamp;pressure;altitude;pressure_sealevel;temperature;humidity
56568;BME280;42456;49.956;20.004;2022-10-31T00:00:26;98717.39;;;8.67;78.75
56568;BME280;42456;49.956;20.004;2022-10-31T00:02:52;98720.91;;;8.65;78.97
56568;BME280;42456;49.956;20.004;2022-10-31T00:05:18;98716.89;;;8.65;79.38
56568;BME280;42456;49.956;20.004;2022-10-31T00:07:45;98712.87;;;8.65;79.61
56568;BME280;42456;49.956;20.004;2022-10-31T00:10:11;98721.15;;;8.66;79.84
56568;BME280;42456;49.956;20.004;2022-10-31T00:12:38;98724.94;;;8.65;79.96
56568;BME280;42456;49.956;20.004;2022-10-31T00:15:04;98719.34;;;8.64;79.75
56568;BME280;42456;49.956;20.004;2022-10-31T00:17:34;98719.95;;;8.61;79.42
56568;BME280;42456;49.956;20.004;2022-10-31T00:20:01;98721.09;;;8.58;79.49
56568;BME280;42456;49.956;20.004;2022-10-31T00:22:28;98718.48;;;8.55;79.63
56568;BME280;42456;49.956;20.004;2022-10-31T00:24:54;98725.80;;;8.52;79.42
56568;BME280;42456;49.956;20.004;2022-10-31T00:27:20;98729.86;;;8.50;79.28
56568;BME280;42456;49.956;20.004;2022-10-31T00:29:47;98728.59;;;8.47;79.35
56568;BME280;42456;49.956;20.004;2022-10-31T00:32:13;98728.89;;;8.46;79.61
56568;BME280;42456;49.956;20.004;2022-10-31T00:34:39;98730.46;;;8.47;79.91
56568;BME280;42456;49.956;20.004;2022-10-31T00:37:05;98731.03;;;8.46;80.34
56568;BME280;42456;49.956;20.004;2022-10-31T00:39:32;98728.59;;;8.47;80.67
56568;BME280;42456;49.956;20.004;2022-10-31T00:41:58;98724.80;;;8.48;80.72
56568;BME280;42456;49.956;20.004;2022-10-31T00:44:24;98728.28;;;8.49;80.76
56568;BME280;42456;49.956;20.004;2022-10-31T00:46:51;98728.59;;;8.47;80.83
56568;BME280;42456;49.956;20.004;2022-10-31T00:49:17;98729.63;;;8.49;81.02
56568;BME280;42456;49.956;20.004;2022-10-31T00:51:43;98726.41;;;8.49;81.17
56568;BME280;42456;49.956;20.004;2022-10-31T00:54:09;98729.08;;;8.49;81.23
56568;BME280;42456;49.956;20.004;2022-10-31T00:56:36;98736.02;;;8.50;81.40
56568;BME280;42456;49.956;20.004;2022-10-31T00:59:02;98726.09;;;8.51;81.41
56568;BME280;42456;49.956;20.004;2022-10-31T01:01:28;98730.42;;;8.49;81.47
56568;BME280;42456;49.956;20.004;2022-10-31T01:03:55;98730.89;;;8.51;81.45
56568;BME280;42456;49.956;20.004;2022-10-31T01:06:21;98729.86;;;8.50;81.49
56568;BME280;42456;49.956;20.004;2022-10-31T01:08:48;98734.98;;;8.49;81.35
56568;BME280;42456;49.956;20.004;2022-10-31T01:11:21;98729.92;;;8.47;81.26
56568;BME280;42456;49.956;20.004;2022-10-31T01:13:50;98732.38;;;8.46;81.10
56568;BME280;42456;49.956;20.004;2022-10-31T01:16:20;98726.28;;;8.43;81.05
56568;BME280;42456;49.956;20.004;2022-10-31T01:18:47;98732.41;;;8.44;81.22
56568;BME280;42456;49.956;20.004;2022-10-31T01:21:22;98726.88;;;8.40;81.21
56568;BME280;42456;49.956;20.004;2022-10-31T01:23:51;98730.91;;;8.40;81.18
56568;BME280;42456;49.956;20.004;2022-10-31T01:26:22;98728.83;;;8.37;81.11
56568;BME280;42456;49.956;20.004;2022-10-31T01:28:54;98731.24;;;8.36;81.12
56568;BME280;42456;49.956;20.004;2022-10-31T01:31:32;98726.75;;;8.34;81.22
56568;BME280;42456;49.956;20.004;2022-10-31T01:33:56;98723.81;;;8.33;81.19
56568;BME280;42456;49.956;20.004;2022-10-31T01:36:29;98719.05;;;8.30;81.11
56568;BME280;42456;49.956;20.004;2022-10-31T01:38:59;98719.36;;;8.29;81.18
56568;BME280;42456;49.956;20.004;2022-10-31T01:41:31;98714.87;;;8.27;81.39
56568;BME280;42456;49.956;20.004;2022-10-31T01:46:57;98709.08;;;8.22;81.14
56568;BME280;42456;49.956;20.004;2022-10-31T01:49:42;98712.06;;;8.18;80.99
56568;BME280;42456;49.956;20.004;2022-10-31T01:55:00;98711.70;;;8.11;81.21
56568;BME280;42456;49.956;20.004;2022-10-31T01:57:40;98708.52;;;8.09;81.37
56568;BME280;42456;49.956;20.004;2022-10-31T02:00:09;98713.40;;;8.07;81.66
56568;BME280;42456;49.956;20.004;2022-10-31T02:02:36;98713.13;;;8.06;81.60
56568;BME280;42456;49.956;20.004;2022-10-31T02:05:06;98711.06;;;8.03;81.38
56568;BME280;42456;49.956;20.004;2022-10-31T02:10:12;98701.84;;;7.96;81.16
56568;BME280;42456;49.956;20.004;2022-10-31T02:12:39;98703.02;;;7.92;81.05
56568;BME280;42456;49.956;20.004;2022-10-31T02:15:08;98710.05;;;7.88;81.14
56568;BME280;42456;49.956;20.004;2022-10-31T02:17:35;98705.29;;;7.85;81.41
56568;BME280;42456;49.956;20.004;2022-10-31T02:31:10;98710.36;;;7.73;81.10
56568;BME280;42456;49.956;20.004;2022-10-31T02:36:23;98717.48;;;7.66;81.35
56568;BME280;42456;49.956;20.004;2022-10-31T02:44:41;98717.62;;;7.59;81.18
56568;BME280;42456;49.956;20.004;2022-10-31T02:47:16;98727.30;;;7.57;81.42
56568;BME280;42456;49.956;20.004;2022-10-31T02:50:02;98730.50;;;7.57;81.59
56568;BME280;42456;49.956;20.004;2022-10-31T02:52:32;98727.35;;;7.55;81.52
56568;BME280;42456;49.956;20.004;2022-10-31T02:55:11;98731.10;;;7.54;81.55
56568;BME280;42456;49.956;20.004;2022-10-31T03:09:58;98739.88;;;7.57;82.19
56568;BME280;42456;49.956;20.004;2022-10-31T03:11:57;98736.13;;;7.58;82.16
56568;BME280;42456;49.956;20.004;2022-10-31T03:14:41;98732.88;;;7.58;82.28
56568;BME280;42456;49.956;20.004;2022-10-31T03:17:25;98742.23;;;7.61;82.28
56568;BME280;42456;49.956;20.004;2022-10-31T03:19:54;98742.76;;;7.60;82.32
56568;BME280;42456;49.956;20.004;2022-10-31T03:22:24;98734.20;;;7.61;82.22
56568;BME280;42456;49.956;20.004;2022-10-31T03:24:54;98746.48;;;7.62;82.14
56568;BME280;42456;49.956;20.004;2022-10-31T03:27:24;98736.88;;;7.61;82.08
56568;BME280;42456;49.956;20.004;2022-10-31T03:29:54;98746.48;;;7.62;82.07
56568;BME280;42456;49.956;20.004;2022-10-31T03:32:29;98746.23;;;7.61;82.13
56568;BME280;42456;49.956;20.004;2022-10-31T03:35:10;98744.03;;;7.63;82.16
56568;BME280;42456;49.956;20.004;2022-10-31T03:37:39;98747.76;;;7.64;82.13
56568;BME280;42456;49.956;20.004;2022-10-31T03:40:08;98751.77;;;7.64;82.07
56568;BME280;42456;49.956;20.004;2022-10-31T03:42:39;98747.76;;;7.64;82.11
56568;BME280;42456;49.956;20.004;2022-10-31T03:45:12;98748.02;;;7.65;82.18
56568;BME280;42456;49.956;20.004;2022-10-31T03:47:43;98750.94;;;7.66;82.30
56568;BME280;42456;49.956;20.004;2022-10-31T03:50:11;98748.50;;;7.67;82.41
56568;BME280;42456;49.956;20.004;2022-10-31T03:58:02;98750.28;;;7.72;82.65
56568;BME280;42456;49.956;20.004;2022-10-31T04:00:33;98753.77;;;7.73;82.72
56568;BME280;42456;49.956;20.004;2022-10-31T04:03:16;98752.66;;;7.73;82.75
56568;BME280;42456;49.956;20.004;2022-10-31T04:05:46;98753.47;;;7.74;82.80
56568;BME280;42456;49.956;20.004;2022-10-31T04:08:16;98752.42;;;7.73;82.84
56568;BME280;42456;49.956;20.004;2022-10-31T04:10:46;98752.16;;;7.71;82.89
56568;BME280;42456;49.956;20.004;2022-10-31T04:13:21;98745.52;;;7.69;82.92
56568;BME280;42456;49.956;20.004;2022-10-31T04:15:50;98746.62;;;7.68;82.93
56568;BME280;42456;49.956;20.004;2022-10-31T04:18:18;98742.91;;;7.66;83.01
56568;BME280;42456;49.956;20.004;2022-10-31T04:20:46;98739.73;;;7.64;83.08
56568;BME280;42456;49.956;20.004;2022-10-31T04:23:20;98742.97;;;7.64;83.22
56568;BME280;42456;49.956;20.004;2022-10-31T04:25:49;98748.05;;;7.63;83.19
56568;BME280;42456;49.956;20.004;2022-10-31T04:28:15;98751.03;;;7.61;83.17
56568;BME280;42456;49.956;20.004;2022-10-31T04:30:42;98754.27;;;7.61;83.12
56568;BME280;42456;49.956;20.004;2022-10-31T04:33:08;98759.65;;;7.58;83.11
56568;BME280;42456;49.956;20.004;2022-10-31T04:35:34;98750.58;;;7.57;83.18
56568;BME280;42456;49.956;20.004;2022-10-31T04:38:01;98755.16;;;7.56;83.30
56568;BME280;42456;49.956;20.004;2022-10-31T04:40:27;98753.02;;;7.56;83.28
56568;BME280;42456;49.956;20.004;2022-10-31T04:42:53;98753.84;;;7.54;83.28
56568;BME280;42456;49.956;20.004;2022-10-31T04:45:20;98755.75;;;7.53;83.36
56568;BME280;42456;49.956;20.004;2022-10-31T04:47:46;98751.47;;;7.52;83.49
56568;BME280;42456;49.956;20.004;2022-10-31T04:50:13;98754.42;;;7.53;83.58
56568;BME280;42456;49.956;20.004;2022-10-31T04:52:43;98754.14;;;7.52;83.56
56568;BME280;42456;49.956;20.004;2022-10-31T04:55:10;98752.33;;;7.50;83.58
56568;BME280;42456;49.956;20.004;2022-10-31T04:57:41;98754.71;;;7.52;83.67
56568;BME280;42456;49.956;20.004;2022-10-31T05:00:10;98755.25;;;7.51;83.74
56568;BME280;42456;49.956;20.004;2022-10-31T05:02:55;98760.36;;;7.50;83.81
56568;BME280;42456;49.956;20.004;2022-10-31T05:05:30;98752.33;;;7.50;83.94
56568;BME280;42456;49.956;20.004;2022-10-31T05:07:51;98761.73;;;7.48;83.58
56568;BME280;42456;49.956;20.004;2022-10-31T05:10:21;98754.56;;;7.46;83.57
56568;BME280;42456;49.956;20.004;2022-10-31T05:12:55;98748.46;;;7.43;83.68
56568;BME280;42456;49.956;20.004;2022-10-31T05:15:23;98751.44;;;7.41;83.49
56568;BME280;42456;49.956;20.004;2022-10-31T05:17:51;98754.94;;;7.39;83.46
56568;BME280;42456;49.956;20.004;2022-10-31T05:20:20;98760.59;;;7.38;83.52
56568;BME280;42456;49.956;20.004;2022-10-31T05:22:50;98760.34;;;7.37;83.49
56568;BME280;42456;49.956;20.004;2022-10-31T05:25:18;98756.36;;;7.34;83.46
56568;BME280;42456;49.956;20.004;2022-10-31T05:27:47;98774.61;;;7.32;83.37
56568;BME280;42456;49.956;20.004;2022-10-31T05:30:17;98769.28;;;7.30;83.40
56568;BME280;42456;49.956;20.004;2022-10-31T05:32:48;98771.72;;;7.29;83.46
56568;BME280;42456;49.956;20.004;2022-10-31T05:35:23;98769.58;;;7.28;83.64
56568;BME280;42456;49.956;20.004;2022-10-31T05:37:46;98780.28;;;7.28;83.69
56568;BME280;42456;49.956;20.004;2022-10-31T05:40:14;98783.23;;;7.29;83.79
56568;BME280;42456;49.956;20.004;2022-10-31T05:42:42;98780.80;;;7.30;83.90
56568;BME280;42456;49.956;20.004;2022-10-31T05:45:11;98785.31;;;7.32;83.75
56568;BME280;42456;49.956;20.004;2022-10-31T05:47:41;98787.98;;;7.32;83.79
56568;BME280;42456;49.956;20.004;2022-10-31T05:50:09;98789.80;;;7.34;83.89
56568;BME280;42456;49.956;20.004;2022-10-31T05:52:35;98793.80;;;7.37;83.99
56568;BME280;42456;49.956;20.004;2022-10-31T05:55:02;98792.40;;;7.39;84.07
56568;BME280;42456;49.956;20.004;2022-10-31T05:57:29;98795.59;;;7.41;83.97
56568;BME280;42456;49.956;20.004;2022-10-31T05:59:55;98796.63;;;7.43;83.94
56568;BME280;42456;49.956;20.004;2022-10-31T06:02:21;98802.16;;;7.46;83.98
56568;BME280;42456;49.956;20.004;2022-10-31T06:04:48;98805.34;;;7.48;84.03
56568;BME280;42456;49.956;20.004;2022-10-31T06:07:14;98809.81;;;7.53;84.07
56568;BME280;42456;49.956;20.004;2022-10-31T06:09:40;98808.98;;;7.55;84.12
56568;BME280;42456;49.956;20.004;2022-10-31T06:12:07;98812.89;;;7.60;84.19
56568;BME280;42456;49.956;20.004;2022-10-31T06:14:34;98812.75;;;7.67;84.35
56568;BME280;42456;49.956;20.004;2022-10-31T06:17:01;98812.60;;;7.75;84.36
56568;BME280;42456;49.956;20.004;2022-10-31T06:19:27;98812.45;;;7.83;84.40
56568;BME280;42456;49.956;20.004;2022-10-31T06:21:53;98814.39;;;7.93;84.37
56568;BME280;42456;49.956;20.004;2022-10-31T06:24:20;98819.84;;;8.02;84.44
56568;BME280;42456;49.956;20.004;2022-10-31T06:26:46;98827.63;;;8.14;84.43
56568;BME280;42456;49.956;20.004;2022-10-31T06:29:12;98831.22;;;8.23;84.41
56568;BME280;42456;49.956;20.004;2022-10-31T06:31:39;98833.95;;;8.34;84.31
56568;BME280;42456;49.956;20.004;2022-10-31T06:34:05;98836.17;;;8.43;84.28
56568;BME280;42456;49.956;20.004;2022-10-31T06:36:31;98837.52;;;8.54;84.21
56568;BME280;42456;49.956;20.004;2022-10-31T06:38:58;98836.20;;;8.65;84.06
56568;BME280;42456;49.956;20.004;2022-10-31T06:41:24;98834.09;;;8.76;83.98
56568;BME280;42456;49.956;20.004;2022-10-31T06:43:50;98835.19;;;8.86;83.71
56568;BME280;42456;49.956;20.004;2022-10-31T06:46:16;98839.54;;;8.95;83.58
56568;BME280;42456;49.956;20.004;2022-10-31T06:48:43;98838.22;;;9.06;83.51
56568;BME280;42456;49.956;20.004;2022-10-31T06:51:09;98840.11;;;9.17;83.42
56568;BME280;42456;49.956;20.004;2022-10-31T06:53:35;98845.21;;;9.27;83.26
56568;BME280;42456;49.956;20.004;2022-10-31T06:56:02;98841.42;;;9.39;83.24
56568;BME280;42456;49.956;20.004;2022-10-31T06:58:29;98836.82;;;9.50;83.29
56568;BME280;42456;49.956;20.004;2022-10-31T07:00:58;98843.53;;;9.62;83.34
56568;BME280;42456;49.956;20.004;2022-10-31T07:03:26;98841.91;;;9.72;83.30
56568;BME280;42456;49.956;20.004;2022-10-31T07:05:55;98846.65;;;9.86;83.27
56568;BME280;42456;49.956;20.004;2022-10-31T07:08:22;98845.52;;;9.98;83.35
56568;BME280;42456;49.956;20.004;2022-10-31T07:10:54;98843.28;;;10.11;83.49
56568;BME280;42456;49.956;20.004;2022-10-31T07:13:21;98846.89;;;10.26;83.52
56568;BME280;42456;49.956;20.004;2022-10-31T07:15:50;98845.91;;;10.41;83.56
56568;BME280;42456;49.956;20.004;2022-10-31T07:18:18;98846.86;;;10.54;83.70
56568;BME280;42456;49.956;20.004;2022-10-31T07:20:44;98846.50;;;10.66;83.71
56568;BME280;42456;49.956;20.004;2022-10-31T07:23:11;98846.12;;;10.79;83.61
56568;BME280;42456;49.956;20.004;2022-10-31T07:25:40;98850.87;;;10.90;83.55
56568;BME280;42456;49.956;20.004;2022-10-31T07:28:06;98852.14;;;11.01;83.62
56568;BME280;42456;49.956;20.004;2022-10-31T07:30:33;98848.80;;;11.13;83.77
56568;BME280;42456;49.956;20.004;2022-10-31T07:33:00;98853.80;;;11.25;83.83
56568;BME280;42456;49.956;20.004;2022-10-31T07:35:28;98852.66;;;11.35;83.60
56568;BME280;42456;49.956;20.004;2022-10-31T07:37:55;98852.56;;;11.46;83.41
56568;BME280;42456;49.956;20.004;2022-10-31T07:40:22;98848.44;;;11.57;83.36
56568;BME280;42456;49.956;20.004;2022-10-31T07:42:51;98844.30;;;11.68;83.45
56568;BME280;42456;49.956;20.004;2022-10-31T07:45:20;98850.28;;;11.82;83.53
56568;BME280;42456;49.956;20.004;2022-10-31T07:47:49;98848.50;;;11.95;83.50
56568;BME280;42456;49.956;20.004;2022-10-31T07:50:22;98849.63;;;12.08;83.52
56568;BME280;42456;49.956;20.004;2022-10-31T07:53:05;98847.59;;;12.20;83.53
56568;BME280;42456;49.956;20.004;2022-10-31T07:55:35;98846.02;;;12.33;83.44
56568;BME280;42456;49.956;20.004;2022-10-31T07:58:11;98847.12;;;12.47;83.40
56568;BME280;42456;49.956;20.004;2022-10-31T08:00:43;98849.69;;;12.58;83.42
56568;BME280;42456;49.956;20.004;2022-10-31T08:03:12;98849.98;;;12.71;83.48
56568;BME280;42456;49.956;20.004;2022-10-31T08:05:40;98849.84;;;12.82;83.36
56568;BME280;42456;49.956;20.004;2022-10-31T08:08:08;98844.39;;;12.96;83.04
56568;BME280;42456;49.956;20.004;2022-10-31T08:10:35;98844.39;;;12.96;83.04
56568;BME280;42456;49.956;20.004;2022-10-31T08:13:07;98853.35;;;13.09;83.09
56568;BME280;42456;49.956;20.004;2022-10-31T08:15:36;98854.32;;;13.19;83.01
56568;BME280;42456;49.956;20.004;2022-10-31T08:18:05;98855.72;;;13.31;82.98
56568;BME280;42456;49.956;20.004;2022-10-31T08:20:32;98857.78;;;13.40;82.91
56568;BME280;42456;49.956;20.004;2022-10-31T08:23:01;98856.80;;;13.51;82.87
56568;BME280;42456;49.956;20.004;2022-10-31T08:25:33;98859.63;;;13.60;82.88
56568;BME280;42456;49.956;20.004;2022-10-31T08:28:00;98855.17;;;13.70;82.71
56568;BME280;42456;49.956;20.004;2022-10-31T08:30:28;98854.59;;;13.77;82.72
56568;BME280;42456;49.956;20.004;2022-10-31T08:33:05;98859.81;;;13.88;82.30
56568;BME280;42456;49.956;20.004;2022-10-31T08:35:38;98854.41;;;13.94;82.17
56568;BME280;42456;49.956;20.004;2022-10-31T08:38:05;98858.95;;;14.08;82.16
56568;BME280;42456;49.956;20.004;2022-10-31T08:40:33;98858.83;;;14.16;81.97
56568;BME280;42456;49.956;20.004;2022-10-31T08:45:39;98856.16;;;14.40;81.13
56568;BME280;42456;49.956;20.004;2022-10-31T08:48:11;98856.16;;;14.40;81.13
56568;BME280;42456;49.956;20.004;2022-10-31T08:50:37;98854.68;;;14.49;80.88
56568;BME280;42456;49.956;20.004;2022-10-31T08:53:15;98851.28;;;14.58;80.59
56568;BME280;42456;49.956;20.004;2022-10-31T08:55:44;98852.08;;;14.64;80.49
56568;BME280;42456;49.956;20.004;2022-10-31T08:58:17;98848.46;;;14.72;80.48
56568;BME280;42456;49.956;20.004;2022-10-31T09:00:46;98847.77;;;14.81;80.44
56568;BME280;42456;49.956;20.004;2022-10-31T09:03:32;98839.50;;;14.90;80.08
56568;BME280;42456;49.956;20.004;2022-10-31T09:05:57;98845.56;;;14.99;79.56
56568;BME280;42456;49.956;20.004;2022-10-31T09:08:25;98847.36;;;15.07;79.30
56568;BME280;42456;49.956;20.004;2022-10-31T09:10:52;98848.34;;;15.15;78.83
56568;BME280;42456;49.956;20.004;2022-10-31T09:13:19;98851.46;;;15.23;78.50
56568;BME280;42456;49.956;20.004;2022-10-31T09:15:48;98852.90;;;15.32;78.22
56568;BME280;42456;49.956;20.004;2022-10-31T09:18:20;98847.70;;;15.39;77.66
56568;BME280;42456;49.956;20.004;2022-10-31T09:20:49;98854.66;;;15.46;77.45
56568;BME280;42456;49.956;20.004;2022-10-31T09:23:21;98860.61;;;15.58;77.38
56568;BME280;42456;49.956;20.004;2022-10-31T09:25:50;98854.22;;;15.66;77.27
56568;BME280;42456;49.956;20.004;2022-10-31T09:28:20;98857.00;;;15.75;76.69
56568;BME280;42456;49.956;20.004;2022-10-31T09:30:49;98857.48;;;15.87;75.71
56568;BME280;42456;49.956;20.004;2022-10-31T09:33:17;98850.97;;;15.97;75.32
56568;BME280;42456;49.956;20.004;2022-10-31T09:35:44;98852.59;;;16.08;74.54
56568;BME280;42456;49.956;20.004;2022-10-31T09:38:12;98853.09;;;16.19;74.62
56568;BME280;42456;49.956;20.004;2022-10-31T09:46:04;98850.87;;;16.56;72.75
56568;BME280;42456;49.956;20.004;2022-10-31T09:51:29;98851.14;;;16.76;71.86
56568;BME280;42456;49.956;20.004;2022-10-31T09:54:59;98854.30;;;16.87;71.06
56568;BME280;42456;49.956;20.004;2022-10-31T09:57:05;98853.75;;;16.98;69.89
56568;BME280;42456;49.956;20.004;2022-10-31T09:59:38;98858.17;;;17.06;69.47
56568;BME280;42456;49.956;20.004;2022-10-31T10:05:01;98858.33;;;17.22;68.32
56568;BME280;42456;49.956;20.004;2022-10-31T10:10:45;98860.06;;;17.40;67.45
56568;BME280;42456;49.956;20.004;2022-10-31T10:33:10;98862.80;;;17.91;64.80
56568;BME280;42456;49.956;20.004;2022-10-31T10:35:46;98856.04;;;17.94;64.71
56568;BME280;42456;49.956;20.004;2022-10-31T10:41:23;98859.78;;;18.09;64.23
56568;BME280;42456;49.956;20.004;2022-10-31T10:43:52;98849.96;;;18.14;63.74
56568;BME280;42456;49.956;20.004;2022-10-31T10:50:06;98850.70;;;18.24;63.57
56568;BME280;42456;49.956;20.004;2022-10-31T10:55:09;98847.75;;;18.32;62.94
56568;BME280;42456;49.956;20.004;2022-10-31T11:00:35;98853.79;;;18.45;63.17
56568;BME280;42456;49.956;20.004;2022-10-31T11:03:02;98854.48;;;18.51;63.12
56568;BME280;42456;49.956;20.004;2022-10-31T11:08:27;98846.84;;;18.60;63.26
56568;BME280;42456;49.956;20.004;2022-10-31T11:11:11;98847.53;;;18.67;62.81
56568;BME280;42456;49.956;20.004;2022-10-31T11:13:41;98849.55;;;18.73;62.56
56568;BME280;42456;49.956;20.004;2022-10-31T11:16:11;98845.16;;;18.79;62.09
56568;BME280;42456;49.956;20.004;2022-10-31T11:18:42;98843.25;;;18.83;62.08
56568;BME280;42456;49.956;20.004;2022-10-31T11:26:40;98841.29;;;18.96;61.87
56568;BME280;42456;49.956;20.004;2022-10-31T11:29:16;98845.06;;;19.01;62.18
56568;BME280;42456;49.956;20.004;2022-10-31T11:31:45;98843.39;;;19.06;61.91
56568;BME280;42456;49.956;20.004;2022-10-31T11:34:16;98841.91;;;19.12;62.04
56568;BME280;42456;49.956;20.004;2022-10-31T11:37:08;98841.00;;;19.18;62.20
56568;BME280;42456;49.956;20.004;2022-10-31T11:39:44;98841.44;;;19.23;62.36
56568;BME280;42456;49.956;20.004;2022-10-31T11:42:14;98833.16;;;19.29;62.17
56568;BME280;42456;49.956;20.004;2022-10-31T11:44:42;98832.84;;;19.34;62.12
56568;BME280;42456;49.956;20.004;2022-10-31T11:47:12;98836.02;;;19.40;62.07
56568;BME280;42456;49.956;20.004;2022-10-31T11:49:45;98830.81;;;19.44;61.58
56568;BME280;42456;49.956;20.004;2022-10-31T11:52:20;98833.78;;;19.49;61.25
56568;BME280;42456;49.956;20.004;2022-10-31T11:55:00;98831.30;;;19.53;60.96
56568;BME280;42456;49.956;20.004;2022-10-31T11:57:43;98829.78;;;19.56;60.54
56568;BME280;42456;49.956;20.004;2022-10-31T12:00:32;98826.13;;;19.61;60.80
56568;BME280;42456;49.956;20.004;2022-10-31T12:06:09;98823.88;;;19.70;60.80
56568;BME280;42456;49.956;20.004;2022-10-31T12:08:41;98818.47;;;19.74;60.33
56568;BME280;42456;49.956;20.004;2022-10-31T12:16:42;98819.33;;;19.85;60.06
56568;BME280;42456;49.956;20.004;2022-10-31T12:36:33;98811.14;;;20.05;59.01
56568;BME280;42456;49.956;20.004;2022-10-31T12:53:33;98795.67;;;20.19;58.38
56568;BME280;42456;49.956;20.004;2022-10-31T12:58:25;98789.25;;;20.21;58.31
56568;BME280;42456;49.956;20.004;2022-10-31T13:06:39;98792.02;;;20.25;57.72
56568;BME280;42456;49.956;20.004;2022-10-31T13:09:07;98792.21;;;20.26;57.98
56568;BME280;42456;49.956;20.004;2022-10-31T13:11:40;98787.55;;;20.26;57.52
56568;BME280;42456;49.956;20.004;2022-10-31T13:14:15;98787.73;;;20.27;57.54
56568;BME280;42456;49.956;20.004;2022-10-31T13:16:56;98786.56;;;20.28;57.72
56568;BME280;42456;49.956;20.004;2022-10-31T13:19:41;98782.69;;;20.29;57.50
56568;BME280;42456;49.956;20.004;2022-10-31T13:22:20;98785.42;;;20.29;57.44
56568;BME280;42456;49.956;20.004;2022-10-31T13:27:46;98785.61;;;20.30;57.25
56568;BME280;42456;49.956;20.004;2022-10-31T13:30:20;98787.55;;;20.30;57.19
56568;BME280;42456;49.956;20.004;2022-10-31T13:38:42;98786.78;;;20.29;57.02
56568;BME280;42456;49.956;20.004;2022-10-31T13:44:27;98783.83;;;20.28;57.44
56568;BME280;42456;49.956;20.004;2022-10-31T13:46:59;98785.80;;;20.28;56.79
56568;BME280;42456;49.956;20.004;2022-10-31T13:54:44;98777.95;;;20.23;56.97
56568;BME280;42456;49.956;20.004;2022-10-31T13:57:37;98777.76;;;20.22;57.09
56568;BME280;42456;49.956;20.004;2022-10-31T14:02:49;98779.47;;;20.17;57.09
56568;BME280;42456;49.956;20.004;2022-10-31T14:05:22;98777.91;;;20.16;57.18
56568;BME280;42456;49.956;20.004;2022-10-31T14:07:52;98776.13;;;20.14;57.32
56568;BME280;42456;49.956;20.004;2022-10-31T14:18:37;98776.36;;;19.98;57.42
56568;BME280;42456;49.956;20.004;2022-10-31T14:23:54;98770.23;;;19.88;57.78
56568;BME280;42456;49.956;20.004;2022-10-31T14:31:44;98766.57;;;19.70;58.18
56568;BME280;42456;49.956;20.004;2022-10-31T14:34:32;98763.19;;;19.64;58.50
56568;BME280;42456;49.956;20.004;2022-10-31T14:40:03;98764.39;;;19.46;59.16
56568;BME280;42456;49.956;20.004;2022-10-31T14:42:51;98763.34;;;19.38;59.01
56568;BME280;42456;49.956;20.004;2022-10-31T14:48:25;98765.22;;;19.17;59.69
56568;BME280;42456;49.956;20.004;2022-10-31T14:51:07;98765.27;;;19.04;59.84
56568;BME280;42456;49.956;20.004;2022-10-31T14:53:47;98766.50;;;18.94;60.09
56568;BME280;42456;49.956;20.004;2022-10-31T14:56:25;98769.47;;;18.82;60.15
56568;BME280;42456;49.956;20.004;2022-10-31T14:59:07;98761.90;;;18.68;60.23
56568;BME280;42456;49.956;20.004;2022-10-31T15:01:34;98764.23;;;18.53;60.43
56568;BME280;42456;49.956;20.004;2022-10-31T15:04:17;98775.70;;;18.39;60.60
56568;BME280;42456;49.956;20.004;2022-10-31T15:06:50;98766.73;;;18.26;60.81
56568;BME280;42456;49.956;20.004;2022-10-31T15:09:33;98766.73;;;18.13;60.99
56568;BME280;42456;49.956;20.004;2022-10-31T15:12:01;98766.94;;;18.01;61.15
56568;BME280;42456;49.956;20.004;2022-10-31T15:14:42;98762.84;;;17.88;61.30
56568;BME280;42456;49.956;20.004;2022-10-31T15:17:10;98761.04;;;17.73;61.42
56568;BME280;42456;49.956;20.004;2022-10-31T15:19:37;98764.87;;;17.59;61.55
56568;BME280;42456;49.956;20.004;2022-10-31T15:22:04;98765.30;;;17.42;61.70
56568;BME280;42456;49.956;20.004;2022-10-31T15:24:36;98763.91;;;17.29;61.96
56568;BME280;42456;49.956;20.004;2022-10-31T15:27:05;98764.63;;;17.16;62.26
56568;BME280;42456;49.956;20.004;2022-10-31T15:29:34;98755.62;;;17.03;62.50
56568;BME280;42456;49.956;20.004;2022-10-31T15:32:15;98760.20;;;16.89;62.76
56568;BME280;42456;49.956;20.004;2022-10-31T15:34:45;98762.71;;;16.78;62.97
56568;BME280;42456;49.956;20.004;2022-10-31T15:37:17;98762.44;;;16.64;63.07
56568;BME280;42456;49.956;20.004;2022-10-31T15:39:46;98764.27;;;16.51;63.13
56568;BME280;42456;49.956;20.004;2022-10-31T15:42:26;98762.77;;;16.38;63.28
56568;BME280;42456;49.956;20.004;2022-10-31T15:45:05;98768.11;;;16.25;63.45
56568;BME280;42456;49.956;20.004;2022-10-31T15:47:38;98772.44;;;16.10;63.65
56568;BME280;42456;49.956;20.004;2022-10-31T15:53:01;98770.12;;;15.87;64.16
56568;BME280;42456;49.956;20.004;2022-10-31T15:55:30;98774.63;;;15.74;64.35
56568;BME280;42456;49.956;20.004;2022-10-31T15:58:01;98778.44;;;15.63;64.47
56568;BME280;42456;49.956;20.004;2022-10-31T16:00:34;98778.16;;;15.53;64.73
56568;BME280;42456;49.956;20.004;2022-10-31T16:03:06;98776.98;;;15.44;65.03
56568;BME280;42456;49.956;20.004;2022-10-31T16:05:58;98787.38;;;15.36;65.32
56568;BME280;42456;49.956;20.004;2022-10-31T16:13:52;98787.97;;;15.08;65.73
56568;BME280;42456;49.956;20.004;2022-10-31T16:16:21;98784.41;;;14.98;65.87
56568;BME280;42456;49.956;20.004;2022-10-31T16:18:49;98788.52;;;14.86;65.81
56568;BME280;42456;49.956;20.004;2022-10-31T16:21:23;98786.86;;;14.75;65.84
56568;BME280;42456;49.956;20.004;2022-10-31T16:24:04;98796.02;;;14.65;65.88
56568;BME280;42456;49.956;20.004;2022-10-31T16:26:33;98792.41;;;14.55;66.11
56568;BME280;42456;49.956;20.004;2022-10-31T16:28:59;98794.25;;;14.45;66.51
56568;BME280;42456;49.956;20.004;2022-10-31T16:31:37;98789.19;;;14.37;66.86
56568;BME280;42456;49.956;20.004;2022-10-31T16:36:47;98791.20;;;14.22;67.27